sensor_id;sensor_type;location;lat;lon;timestamp;pressure;altitude;pressure_sealevel;temperature;humidity
69855;BME280;57146;48.140;16.304;2022-12-07T00:01:31;99218.38;;;4.26;76.94
69855;BME280;57146;48.140;16.304;2022-12-07T00:04:04;99203.81;;;4.30;76.79
69855;BME280;57146;48.140;16.304;2022-12-07T00:06:33;99195.47;;;4.28;77.56
69855;BME280;57146;48.140;16.304;2022-12-07T00:09:01;99201.22;;;4.30;76.92
69855;BME280;57146;48.140;16.304;2022-12-07T00:11:28;99196.50;;;4.32;76.61
69855;BME280;57146;48.140;16.304;2022-12-07T00:14:05;99190.78;;;4.36;76.26
69855;BME280;57146;48.140;16.304;2022-12-07T00:16:34;99196.00;;;4.36;76.16
69855;BME280;57146;48.140;16.304;2022-12-07T00:19:04;99193.66;;;4.34;77.12
69855;BME280;57146;48.140;16.304;2022-12-07T00:21:34;99192.06;;;4.33;76.95
69855;BME280;57146;48.140;16.304;2022-12-07T00:24:02;99187.41;;;4.35;76.71
69855;BME280;57146;48.140;16.304;2022-12-07T00:26:34;99190.28;;;4.39;77.01
69855;BME280;57146;48.140;16.304;2022-12-07T00:29:06;99185.06;;;4.39;77.12
69855;BME280;57146;48.140;16.304;2022-12-07T00:31:35;99196.25;;;4.39;77.03
69855;BME280;57146;48.140;16.304;2022-12-07T00:34:02;99186.09;;;4.38;77.44
69855;BME280;57146;48.140;16.304;2022-12-07T00:36:29;99187.41;;;4.35;77.64
69855;BME280;57146;48.140;16.304;2022-12-07T00:38:58;99185.31;;;4.37;77.72
69855;BME280;57146;48.140;16.304;2022-12-07T00:41:26;99182.97;;;4.36;77.80
69855;BME280;57146;48.140;16.304;2022-12-07T00:43:54;99182.19;;;4.35;77.92
69855;BME280;57146;48.140;16.304;2022-12-07T00:46:21;99182.19;;;4.35;78.07
69855;BME280;57146;48.140;16.304;2022-12-07T00:48:51;99173.06;;;4.32;78.70
69855;BME280;57146;48.140;16.304;2022-12-07T00:51:20;99174.38;;;4.35;78.16
69855;BME280;57146;48.140;16.304;2022-12-07T00:53:48;99184.25;;;4.33;78.93
69855;BME280;57146;48.140;16.304;2022-12-07T00:56:20;99179.56;;;4.30;79.06
69855;BME280;57146;48.140;16.304;2022-12-07T00:58:55;99187.38;;;4.30;79.42
69855;BME280;57146;48.140;16.304;2022-12-07T01:01:24;99191.31;;;4.27;78.92
69855;BME280;57146;48.140;16.304;2022-12-07T01:03:51;99190.53;;;4.27;79.51
69855;BME280;57146;48.140;16.304;2022-12-07T01:06:20;99186.63;;;4.24;79.80
69855;BME280;57146;48.140;16.304;2022-12-07T01:08:48;99193.13;;;4.17;80.25
69855;BME280;57146;48.140;16.304;2022-12-07T01:11:17;99190.50;;;4.17;80.06
69855;BME280;57146;48.140;16.304;2022-12-07T01:13:45;99200.41;;;4.15;80.83
69855;BME280;57146;48.140;16.304;2022-12-07T01:16:14;99201.19;;;4.15;80.72
69855;BME280;57146;48.140;16.304;2022-12-07T01:18:45;99199.34;;;4.11;81.46
69855;BME280;57146;48.140;16.304;2022-12-07T01:21:17;99200.91;;;4.12;80.98
69855;BME280;57146;48.140;16.304;2022-12-07T01:23:45;99206.91;;;4.12;81.73
69855;BME280;57146;48.140;16.304;2022-12-07T01:26:15;99204.56;;;4.11;81.63
69855;BME280;57146;48.140;16.304;2022-12-07T01:28:43;99202.47;;;4.13;81.86
69855;BME280;57146;48.140;16.304;2022-12-07T01:31:15;99199.09;;;4.12;81.59
69855;BME280;57146;48.140;16.304;2022-12-07T01:33:44;99202.47;;;4.13;81.54
69855;BME280;57146;48.140;16.304;2022-12-07T01:36:30;99204.56;;;4.11;81.95
69855;BME280;57146;48.140;16.304;2022-12-07T01:39:00;99198.31;;;4.12;82.27
69855;BME280;57146;48.140;16.304;2022-12-07T01:41:31;99196.75;;;4.11;82.02
69855;BME280;57146;48.140;16.304;2022-12-07T01:44:24;99200.66;;;4.13;82.34
69855;BME280;57146;48.140;16.304;2022-12-07T01:46:59;99203.00;;;4.10;82.74
69855;BME280;57146;48.140;16.304;2022-12-07T01:49:42;99198.81;;;4.08;83.05
69855;BME280;57146;48.140;16.304;2022-12-07T01:54:42;99195.19;;;4.10;82.43
69855;BME280;57146;48.140;16.304;2022-12-07T01:57:11;99194.38;;;4.09;82.52
69855;BME280;57146;48.140;16.304;2022-12-07T01:59:40;99193.09;;;4.06;83.11
69855;BME280;57146;48.140;16.304;2022-12-07T02:02:13;99187.13;;;4.06;83.09
69855;BME280;57146;48.140;16.304;2022-12-07T02:04:46;99193.09;;;4.06;83.39
69855;BME280;57146;48.140;16.304;2022-12-07T02:07:13;99185.28;;;4.06;82.14
69855;BME280;57146;48.140;16.304;2022-12-07T02:09:40;99182.94;;;4.05;82.86
69855;BME280;57146;48.140;16.304;2022-12-07T02:12:07;99179.81;;;4.03;82.87
69855;BME280;57146;48.140;16.304;2022-12-07T02:14:34;99173.81;;;4.02;82.61
69855;BME280;57146;48.140;16.304;2022-12-07T02:30:31;99178.22;;;3.97;83.22
69855;BME280;57146;48.140;16.304;2022-12-07T02:33:14;99180.56;;;3.98;82.79
69855;BME280;57146;48.140;16.304;2022-12-07T02:35:48;99175.63;;;3.97;83.55
69855;BME280;57146;48.140;16.304;2022-12-07T02:41:10;99189.44;;;3.97;83.31
69855;BME280;57146;48.140;16.304;2022-12-07T02:43:50;99186.59;;;3.99;83.23
69855;BME280;57146;48.140;16.304;2022-12-07T02:46:26;99184.22;;;3.97;83.15
69855;BME280;57146;48.140;16.304;2022-12-07T02:48:55;99185.78;;;3.98;83.06
69855;BME280;57146;48.140;16.304;2022-12-07T02:51:22;99187.34;;;3.99;83.20
69855;BME280;57146;48.140;16.304;2022-12-07T02:53:49;99185.53;;;4.00;83.62
69855;BME280;57146;48.140;16.304;2022-12-07T02:56:38;99187.34;;;3.99;83.55
69855;BME280;57146;48.140;16.304;2022-12-07T03:05:12;99187.09;;;3.96;83.49
69855;BME280;57146;48.140;16.304;2022-12-07T03:07:59;99193.09;;;3.96;83.77
69855;BME280;57146;48.140;16.304;2022-12-07T03:13:59;99189.44;;;3.97;83.20
69855;BME280;57146;48.140;16.304;2022-12-07T03:16:35;99182.66;;;3.96;83.73
69855;BME280;57146;48.140;16.304;2022-12-07T03:19:11;99176.41;;;3.92;83.32
69855;BME280;57146;48.140;16.304;2022-12-07T03:21:44;99180.56;;;3.93;83.63
69855;BME280;57146;48.140;16.304;2022-12-07T03:24:19;99181.63;;;3.92;83.77
69855;BME280;57146;48.140;16.304;2022-12-07T03:26:52;99183.19;;;3.93;83.99
69855;BME280;57146;48.140;16.304;2022-12-07T03:29:31;99182.63;;;3.91;83.85
69855;BME280;57146;48.140;16.304;2022-12-07T03:32:10;99174.03;;;3.91;83.82
69855;BME280;57146;48.140;16.304;2022-12-07T03:34:51;99176.41;;;3.92;83.76
69855;BME280;57146;48.140;16.304;2022-12-07T03:37:47;99183.94;;;3.94;83.10
69855;BME280;57146;48.140;16.304;2022-12-07T03:40:17;99177.97;;;3.93;84.11
69855;BME280;57146;48.140;16.304;2022-12-07T03:42:46;99179.78;;;3.93;83.82
69855;BME280;57146;48.140;16.304;2022-12-07T03:45:15;99185.50;;;3.95;83.41
69855;BME280;57146;48.140;16.304;2022-12-07T03:48:03;99185.78;;;3.93;83.75
69855;BME280;57146;48.140;16.304;2022-12-07T03:50:38;99186.31;;;3.95;83.07
69855;BME280;57146;48.140;16.304;2022-12-07T03:53:53;99184.72;;;3.94;83.92
69855;BME280;57146;48.140;16.304;2022-12-07T03:56:22;99188.13;;;3.95;83.11
69855;BME280;57146;48.140;16.304;2022-12-07T03:58:51;99188.66;;;3.97;83.16
69855;BME280;57146;48.140;16.304;2022-12-07T04:01:19;99182.41;;;3.98;83.53
69855;BME280;57146;48.140;16.304;2022-12-07T04:03:46;99188.38;;;3.98;83.41
69855;BME280;57146;48.140;16.304;2022-12-07T04:06:13;99193.84;;;3.97;83.60
69855;BME280;57146;48.140;16.304;2022-12-07T04:08:40;99186.03;;;3.97;83.11
69855;BME280;57146;48.140;16.304;2022-12-07T04:11:07;99180.84;;;3.97;83.41
69855;BME280;57146;48.140;16.304;2022-12-07T04:13:34;99185.00;;;3.98;83.73
69855;BME280;57146;48.140;16.304;2022-12-07T04:16:01;99195.41;;;3.98;82.88
69855;BME280;57146;48.140;16.304;2022-12-07T04:18:28;99195.41;;;3.98;82.94
69855;BME280;57146;48.140;16.304;2022-12-07T04:20:54;99200.91;;;3.96;83.62
69855;BME280;57146;48.140;16.304;2022-12-07T04:23:21;99189.44;;;3.97;82.84
69855;BME280;57146;48.140;16.304;2022-12-07T04:25:48;99193.59;;;3.98;82.83
69855;BME280;57146;48.140;16.304;2022-12-07T04:28:15;99193.09;;;3.96;82.90
69855;BME280;57146;48.140;16.304;2022-12-07T04:30:42;99194.13;;;3.95;83.13
69855;BME280;57146;48.140;16.304;2022-12-07T04:33:09;99186.03;;;3.97;82.76
69855;BME280;57146;48.140;16.304;2022-12-07T04:35:35;99197.78;;;3.99;82.60
69855;BME280;57146;48.140;16.304;2022-12-07T04:38:02;99192.56;;;3.99;82.91
69855;BME280;57146;48.140;16.304;2022-12-07T04:40:30;99192.31;;;4.01;82.56
69855;BME280;57146;48.140;16.304;2022-12-07T04:42:57;99192.31;;;4.01;82.75
69855;BME280;57146;48.140;16.304;2022-12-07T04:45:23;99188.91;;;4.00;83.12
69855;BME280;57146;48.140;16.304;2022-12-07T04:47:50;99189.97;;;3.99;83.05
69855;BME280;57146;48.140;16.304;2022-12-07T04:50:17;99188.38;;;3.98;83.00
69855;BME280;57146;48.140;16.304;2022-12-07T04:52:44;99190.47;;;4.01;82.46
69855;BME280;57146;48.140;16.304;2022-12-07T04:55:11;99184.47;;;4.01;83.07
69855;BME280;57146;48.140;16.304;2022-12-07T04:57:38;99193.63;;;4.03;82.80
69855;BME280;57146;48.140;16.304;2022-12-07T05:00:06;99192.31;;;4.06;82.34
69855;BME280;57146;48.140;16.304;2022-12-07T05:02:33;99187.91;;;4.06;82.15
69855;BME280;57146;48.140;16.304;2022-12-07T05:05:00;99189.72;;;4.06;82.83
69855;BME280;57146;48.140;16.304;2022-12-07T05:07:27;99184.75;;;4.04;82.50
69855;BME280;57146;48.140;16.304;2022-12-07T05:09:54;99184.75;;;4.04;83.01
69855;BME280;57146;48.140;16.304;2022-12-07T05:12:21;99183.19;;;4.08;82.29
69855;BME280;57146;48.140;16.304;2022-12-07T05:14:48;99182.16;;;4.10;81.67
69855;BME280;57146;48.140;16.304;2022-12-07T05:17:14;99186.84;;;4.07;82.63
69855;BME280;57146;48.140;16.304;2022-12-07T05:19:41;99182.16;;;4.10;81.90
69855;BME280;57146;48.140;16.304;2022-12-07T05:22:08;99179.56;;;4.10;82.15
69855;BME280;57146;48.140;16.304;2022-12-07T05:24:35;99192.59;;;4.10;81.35
69855;BME280;57146;48.140;16.304;2022-12-07T05:27:02;99190.75;;;4.10;81.46
69855;BME280;57146;48.140;16.304;2022-12-07T05:29:29;99186.84;;;4.07;81.62
69855;BME280;57146;48.140;16.304;2022-12-07T05:31:56;99176.69;;;4.06;81.26
69855;BME280;57146;48.140;16.304;2022-12-07T05:34:23;99179.03;;;4.07;81.36
69855;BME280;57146;48.140;16.304;2022-12-07T05:36:49;99182.16;;;4.10;81.15
69855;BME280;57146;48.140;16.304;2022-12-07T05:39:16;99179.81;;;4.08;81.68
69855;BME280;57146;48.140;16.304;2022-12-07T05:41:43;99174.88;;;4.06;80.87
69855;BME280;57146;48.140;16.304;2022-12-07T05:44:10;99177.47;;;4.06;80.73
69855;BME280;57146;48.140;16.304;2022-12-07T05:46:37;99178.75;;;4.09;81.37
69855;BME280;57146;48.140;16.304;2022-12-07T05:49:03;99174.34;;;4.10;81.33
69855;BME280;57146;48.140;16.304;2022-12-07T05:51:30;99179.56;;;4.10;81.58
69855;BME280;57146;48.140;16.304;2022-12-07T05:53:57;99181.38;;;4.09;81.57
69855;BME280;57146;48.140;16.304;2022-12-07T05:56:24;99180.06;;;4.12;80.99
69855;BME280;57146;48.140;16.304;2022-12-07T05:58:51;99180.84;;;4.12;80.59
69855;BME280;57146;48.140;16.304;2022-12-07T06:01:17;99182.16;;;4.10;81.21
69855;BME280;57146;48.140;16.304;2022-12-07T06:03:44;99181.38;;;4.14;80.45
69855;BME280;57146;48.140;16.304;2022-12-07T06:06:11;99182.44;;;4.13;80.42
69855;BME280;57146;48.140;16.304;2022-12-07T06:08:38;99182.16;;;4.15;80.38
69855;BME280;57146;48.140;16.304;2022-12-07T06:11:05;99188.44;;;4.14;80.19
69855;BME280;57146;48.140;16.304;2022-12-07T06:13:32;99190.25;;;4.13;80.02
69855;BME280;57146;48.140;16.304;2022-12-07T06:15:58;99194.41;;;4.14;79.82
69855;BME280;57146;48.140;16.304;2022-12-07T06:18:25;99185.28;;;4.12;79.69
69855;BME280;57146;48.140;16.304;2022-12-07T06:20:52;99192.59;;;4.10;80.25
69855;BME280;57146;48.140;16.304;2022-12-07T06:23:19;99187.38;;;4.10;80.61
69855;BME280;57146;48.140;16.304;2022-12-07T06:25:46;99180.59;;;4.08;80.32
69855;BME280;57146;48.140;16.304;2022-12-07T06:28:12;99181.66;;;4.18;79.96
69855;BME280;57146;48.140;16.304;2022-12-07T06:30:39;99182.69;;;4.17;79.53
69855;BME280;57146;48.140;16.304;2022-12-07T06:33:06;99190.75;;;4.15;79.30
69855;BME280;57146;48.140;16.304;2022-12-07T06:35:33;99193.38;;;4.10;79.98
69855;BME280;57146;48.140;16.304;2022-12-07T06:38:00;99182.94;;;4.10;79.86
69855;BME280;57146;48.140;16.304;2022-12-07T06:40:27;99188.66;;;4.12;79.29
69855;BME280;57146;48.140;16.304;2022-12-07T06:42:54;99196.22;;;4.08;79.98
69855;BME280;57146;48.140;16.304;2022-12-07T06:45:21;99193.09;;;4.12;79.78
69855;BME280;57146;48.140;16.304;2022-12-07T06:47:48;99205.06;;;4.13;79.50
69855;BME280;57146;48.140;16.304;2022-12-07T06:50:15;99201.69;;;4.12;79.69
69855;BME280;57146;48.140;16.304;2022-12-07T06:52:42;99197.03;;;4.14;78.74
69855;BME280;57146;48.140;16.304;2022-12-07T06:55:09;99198.84;;;4.14;79.29
69855;BME280;57146;48.140;16.304;2022-12-07T06:57:36;99198.31;;;4.12;79.78
69855;BME280;57146;48.140;16.304;2022-12-07T07:00:03;99199.88;;;4.13;79.33
69855;BME280;57146;48.140;16.304;2022-12-07T07:02:30;99200.66;;;4.13;79.16
69855;BME280;57146;48.140;16.304;2022-12-07T07:04:57;99200.13;;;4.11;79.32
69855;BME280;57146;48.140;16.304;2022-12-07T07:07:24;99195.47;;;4.13;79.27
69855;BME280;57146;48.140;16.304;2022-12-07T07:09:51;99189.97;;;4.15;78.24
69855;BME280;57146;48.140;16.304;2022-12-07T07:12:18;99193.13;;;4.17;78.71
69855;BME280;57146;48.140;16.304;2022-12-07T07:14:44;99188.69;;;4.17;78.16
69855;BME280;57146;48.140;16.304;2022-12-07T07:17:11;99196.22;;;4.19;78.19
69855;BME280;57146;48.140;16.304;2022-12-07T07:19:38;99195.22;;;4.20;78.50
69855;BME280;57146;48.140;16.304;2022-12-07T07:22:05;99203.03;;;4.20;78.43
69855;BME280;57146;48.140;16.304;2022-12-07T07:24:31;99207.72;;;4.18;78.65
69855;BME280;57146;48.140;16.304;2022-12-07T07:26:58;99207.44;;;4.19;77.92
69855;BME280;57146;48.140;16.304;2022-12-07T07:29:25;99213.19;;;4.21;78.16
69855;BME280;57146;48.140;16.304;2022-12-07T07:31:52;99209.81;;;4.21;78.12
69855;BME280;57146;48.140;16.304;2022-12-07T07:34:19;99208.75;;;4.22;78.49
69855;BME280;57146;48.140;16.304;2022-12-07T07:36:46;99201.72;;;4.22;78.41
69855;BME280;57146;48.140;16.304;2022-12-07T07:39:13;99204.06;;;4.24;77.78
69855;BME280;57146;48.140;16.304;2022-12-07T07:41:40;99215.28;;;4.24;77.54
69855;BME280;57146;48.140;16.304;2022-12-07T07:44:12;99214.50;;;4.24;77.53
69855;BME280;57146;48.140;16.304;2022-12-07T07:46:41;99208.22;;;4.25;77.60
69855;BME280;57146;48.140;16.304;2022-12-07T07:49:09;99220.22;;;4.26;76.87
69855;BME280;57146;48.140;16.304;2022-12-07T07:51:36;99219.19;;;4.27;76.65
69855;BME280;57146;48.140;16.304;2022-12-07T07:54:04;99221.25;;;4.25;77.37
69855;BME280;57146;48.140;16.304;2022-12-07T07:56:31;99222.31;;;4.24;77.94
69855;BME280;57146;48.140;16.304;2022-12-07T07:58:57;99226.47;;;4.25;77.34
69855;BME280;57146;48.140;16.304;2022-12-07T08:01:24;99231.69;;;4.25;77.59
69855;BME280;57146;48.140;16.304;2022-12-07T08:03:51;99233.50;;;4.24;77.44
69855;BME280;57146;48.140;16.304;2022-12-07T08:06:18;99229.09;;;4.20;77.89
69855;BME280;57146;48.140;16.304;2022-12-07T08:08:45;99228.78;;;4.16;77.71
69855;BME280;57146;48.140;16.304;2022-12-07T08:11:13;99229.59;;;4.17;78.15
69855;BME280;57146;48.140;16.304;2022-12-07T08:13:40;99230.38;;;4.17;77.77
69855;BME280;57146;48.140;16.304;2022-12-07T08:16:08;99233.75;;;4.18;77.76
69855;BME280;57146;48.140;16.304;2022-12-07T08:18:39;99230.88;;;4.14;77.26
69855;BME280;57146;48.140;16.304;2022-12-07T08:21:08;99237.94;;;4.14;78.04
69855;BME280;57146;48.140;16.304;2022-12-07T08:23:36;99233.50;;;4.14;78.45
69855;BME280;57146;48.140;16.304;2022-12-07T08:26:09;99238.69;;;4.14;77.93
69855;BME280;57146;48.140;16.304;2022-12-07T08:28:37;99236.59;;;4.16;77.50
69855;BME280;57146;48.140;16.304;2022-12-07T08:31:11;99237.91;;;4.19;76.70
69855;BME280;57146;48.140;16.304;2022-12-07T08:33:38;99243.13;;;4.19;77.19
69855;BME280;57146;48.140;16.304;2022-12-07T08:36:08;99252.53;;;4.20;77.42
69855;BME280;57146;48.140;16.304;2022-12-07T08:38:37;99249.66;;;4.21;76.08
69855;BME280;57146;48.140;16.304;2022-12-07T08:41:04;99259.81;;;4.23;74.21
69855;BME280;57146;48.140;16.304;2022-12-07T08:43:31;99251.75;;;4.24;73.89
69855;BME280;57146;48.140;16.304;2022-12-07T08:46:07;99261.91;;;4.26;73.33
69855;BME280;57146;48.140;16.304;2022-12-07T08:48:41;99264.00;;;4.24;72.23
69855;BME280;57146;48.140;16.304;2022-12-07T08:51:09;99262.41;;;4.23;72.70
69855;BME280;57146;48.140;16.304;2022-12-07T08:53:38;99267.13;;;4.21;72.68
69855;BME280;57146;48.140;16.304;2022-12-07T08:56:05;99261.91;;;4.21;71.99
69855;BME280;57146;48.140;16.304;2022-12-07T08:58:34;99270.50;;;4.21;70.91
69855;BME280;57146;48.140;16.304;2022-12-07T09:01:02;99261.91;;;4.21;71.27
69855;BME280;57146;48.140;16.304;2022-12-07T09:03:30;99259.03;;;4.22;70.07
69855;BME280;57146;48.140;16.304;2022-12-07T09:05:57;99271.03;;;4.23;69.79
69855;BME280;57146;48.140;16.304;2022-12-07T09:08:30;99265.03;;;4.23;70.64
69855;BME280;57146;48.140;16.304;2022-12-07T09:10:58;99260.34;;;4.20;69.98
69855;BME280;57146;48.140;16.304;2022-12-07T09:13:25;99264.50;;;4.21;70.02
69855;BME280;57146;48.140;16.304;2022-12-07T09:15:52;99263.72;;;4.20;69.12
69855;BME280;57146;48.140;16.304;2022-12-07T09:18:19;99257.75;;;4.20;69.90
69855;BME280;57146;48.140;16.304;2022-12-07T09:20:46;99260.84;;;4.22;70.30
69855;BME280;57146;48.140;16.304;2022-12-07T09:23:13;99250.44;;;4.22;70.49
69855;BME280;57146;48.140;16.304;2022-12-07T09:25:39;99248.88;;;4.21;70.06
69855;BME280;57146;48.140;16.304;2022-12-07T09:28:06;99255.66;;;4.22;71.36
69855;BME280;57146;48.140;16.304;2022-12-07T09:30:33;99249.38;;;4.18;70.32
69855;BME280;57146;48.140;16.304;2022-12-07T09:33:18;99249.13;;;4.14;70.76
69855;BME280;57146;48.140;16.304;2022-12-07T09:35:50;99248.59;;;4.12;70.93
69855;BME280;57146;48.140;16.304;2022-12-07T09:38:18;99249.63;;;4.11;70.87
69855;BME280;57146;48.140;16.304;2022-12-07T09:40:46;99244.69;;;4.10;72.01
69855;BME280;57146;48.140;16.304;2022-12-07T09:43:19;99248.59;;;4.12;72.80
69855;BME280;57146;48.140;16.304;2022-12-07T09:45:49;99258.25;;;4.17;72.71
69855;BME280;57146;48.140;16.304;2022-12-07T09:48:19;99246.00;;;4.17;70.32
69855;BME280;57146;48.140;16.304;2022-12-07T09:50:48;99260.84;;;4.22;71.58
69855;BME280;57146;48.140;16.304;2022-12-07T09:53:36;99249.94;;;4.25;72.14
69855;BME280;57146;48.140;16.304;2022-12-07T09:56:04;99244.19;;;4.28;71.94
69855;BME280;57146;48.140;16.304;2022-12-07T09:58:32;99240.31;;;4.30;70.07
69855;BME280;57146;48.140;16.304;2022-12-07T10:01:08;99236.91;;;4.35;70.69
69855;BME280;57146;48.140;16.304;2022-12-07T10:03:39;99232.22;;;4.37;70.24
69855;BME280;57146;48.140;16.304;2022-12-07T10:06:07;99236.41;;;4.38;68.75
69855;BME280;57146;48.140;16.304;2022-12-07T10:08:33;99223.09;;;4.40;68.96
69855;BME280;57146;48.140;16.304;2022-12-07T10:11:02;99221.03;;;4.42;69.09
69855;BME280;57146;48.140;16.304;2022-12-07T10:13:37;99218.44;;;4.42;67.29
69855;BME280;57146;48.140;16.304;2022-12-07T10:16:05;99210.88;;;4.45;68.16
69855;BME280;57146;48.140;16.304;2022-12-07T10:18:37;99217.13;;;4.49;67.26
69855;BME280;57146;48.140;16.304;2022-12-07T10:21:43;99211.91;;;4.49;66.80
69855;BME280;57146;48.140;16.304;2022-12-07T10:24:04;99205.13;;;4.48;66.64
69855;BME280;57146;48.140;16.304;2022-12-07T10:29:14;99217.91;;;4.50;66.86
69855;BME280;57146;48.140;16.304;2022-12-07T10:31:43;99212.41;;;4.51;66.49
69855;BME280;57146;48.140;16.304;2022-12-07T10:34:26;99215.56;;;4.48;65.74
69855;BME280;57146;48.140;16.304;2022-12-07T10:36:53;99210.59;;;4.47;66.04
69855;BME280;57146;48.140;16.304;2022-12-07T10:39:44;99201.22;;;4.46;66.50
69855;BME280;57146;48.140;16.304;2022-12-07T10:42:19;99202.78;;;4.47;66.19
69855;BME280;57146;48.140;16.304;2022-12-07T10:44:48;99204.09;;;4.49;65.79
69855;BME280;57146;48.140;16.304;2022-12-07T11:06:37;99175.13;;;4.82;64.44
69855;BME280;57146;48.140;16.304;2022-12-07T11:12:27;99191.53;;;4.82;63.28
69855;BME280;57146;48.140;16.304;2022-12-07T11:15:10;99197.81;;;4.76;63.26
69855;BME280;57146;48.140;16.304;2022-12-07T11:26:07;99180.63;;;4.60;63.55
69855;BME280;57146;48.140;16.304;2022-12-07T11:37:09;99190.53;;;4.52;63.33
69855;BME280;57146;48.140;16.304;2022-12-07T11:39:49;99180.63;;;4.49;64.78
69855;BME280;57146;48.140;16.304;2022-12-07T11:42:22;99181.16;;;4.46;64.92
69855;BME280;57146;48.140;16.304;2022-12-07T11:44:56;99186.09;;;4.43;65.06
69855;BME280;57146;48.140;16.304;2022-12-07T11:47:40;99178.78;;;4.40;64.68
69855;BME280;57146;48.140;16.304;2022-12-07T11:55:54;99180.38;;;4.30;66.54
69855;BME280;57146;48.140;16.304;2022-12-07T12:01:47;99177.75;;;4.30;66.93
69855;BME280;57146;48.140;16.304;2022-12-07T12:07:16;99178.56;;;4.41;65.39
69855;BME280;57146;48.140;16.304;2022-12-07T12:10:06;99172.78;;;4.44;65.67
69855;BME280;57146;48.140;16.304;2022-12-07T12:18:25;99165.22;;;4.58;64.82
69855;BME280;57146;48.140;16.304;2022-12-07T12:21:02;99162.34;;;4.65;64.85
69855;BME280;57146;48.140;16.304;2022-12-07T12:23:47;99155.06;;;4.67;64.66
69855;BME280;57146;48.140;16.304;2022-12-07T12:26:21;99150.59;;;4.72;65.04
69855;BME280;57146;48.140;16.304;2022-12-07T12:28:52;99164.94;;;4.75;63.93
69855;BME280;57146;48.140;16.304;2022-12-07T12:34:30;99143.53;;;4.83;63.87
69855;BME280;57146;48.140;16.304;2022-12-07T12:36:57;99144.34;;;4.78;62.42
69855;BME280;57146;48.140;16.304;2022-12-07T12:39:25;99146.94;;;4.78;63.22
69855;BME280;57146;48.140;16.304;2022-12-07T12:41:56;99151.13;;;4.79;62.17
69855;BME280;57146;48.140;16.304;2022-12-07T12:50:19;99149.28;;;4.80;61.57
69855;BME280;57146;48.140;16.304;2022-12-07T12:52:53;99147.75;;;4.84;61.79
69855;BME280;57146;48.140;16.304;2022-12-07T12:55:30;99144.31;;;4.84;62.14
69855;BME280;57146;48.140;16.304;2022-12-07T13:00:45;99150.06;;;4.86;60.72
69855;BME280;57146;48.140;16.304;2022-12-07T13:03:26;99145.09;;;4.89;62.53
69855;BME280;57146;48.140;16.304;2022-12-07T13:08:53;99145.88;;;4.95;62.59
69855;BME280;57146;48.140;16.304;2022-12-07T13:11:35;99141.19;;;4.92;62.57
69855;BME280;57146;48.140;16.304;2022-12-07T13:20:00;99137.81;;;4.86;62.79
69855;BME280;57146;48.140;16.304;2022-12-07T13:28:16;99144.88;;;4.75;63.06
69855;BME280;57146;48.140;16.304;2022-12-07T13:31:09;99154.78;;;4.73;62.08
69855;BME280;57146;48.140;16.304;2022-12-07T13:33:37;99161.03;;;4.72;63.17
69855;BME280;57146;48.140;16.304;2022-12-07T13:36:14;99151.94;;;4.70;62.63
69855;BME280;57146;48.140;16.304;2022-12-07T13:38:49;99151.69;;;4.66;62.95
69855;BME280;57146;48.140;16.304;2022-12-07T13:41:19;99151.16;;;4.64;63.02
69855;BME280;57146;48.140;16.304;2022-12-07T13:43:54;99157.13;;;4.65;62.55
69855;BME280;57146;48.140;16.304;2022-12-07T13:46:46;99162.34;;;4.65;63.04
69855;BME280;57146;48.140;16.304;2022-12-07T13:49:19;99158.97;;;4.64;63.59
69855;BME280;57146;48.140;16.304;2022-12-07T13:51:47;99156.63;;;4.63;62.60
69855;BME280;57146;48.140;16.304;2022-12-07T13:54:16;99156.63;;;4.63;62.94
69855;BME280;57146;48.140;16.304;2022-12-07T13:56:48;99156.88;;;4.61;63.87
69855;BME280;57146;48.140;16.304;2022-12-07T13:59:23;99153.50;;;4.61;64.28
69855;BME280;57146;48.140;16.304;2022-12-07T14:01:52;99153.78;;;4.59;64.36
69855;BME280;57146;48.140;16.304;2022-12-07T14:04:35;99153.25;;;4.57;64.98
69855;BME280;57146;48.140;16.304;2022-12-07T14:07:26;99154.28;;;4.51;65.31
69855;BME280;57146;48.140;16.304;2022-12-07T14:12:22;99151.94;;;4.49;64.72
69855;BME280;57146;48.140;16.304;2022-12-07T14:14:49;99152.72;;;4.50;65.04
69855;BME280;57146;48.140;16.304;2022-12-07T14:17:22;99157.16;;;4.49;65.52
69855;BME280;57146;48.140;16.304;2022-12-07T14:20:02;99146.97;;;4.48;65.63
69855;BME280;57146;48.140;16.304;2022-12-07T14:25:21;99159.50;;;4.46;66.49
69855;BME280;57146;48.140;16.304;2022-12-07T14:27:58;99159.25;;;4.52;66.12
69855;BME280;57146;48.140;16.304;2022-12-07T14:30:30;99159.25;;;4.52;66.18
69855;BME280;57146;48.140;16.304;2022-12-07T14:33:00;99163.94;;;4.50;67.03
69855;BME280;57146;48.140;16.304;2022-12-07T14:35:28;99163.41;;;4.53;66.21
69855;BME280;57146;48.140;16.304;2022-12-07T14:37:55;99162.63;;;4.53;66.21
69855;BME280;57146;48.140;16.304;2022-12-07T14:40:29;99154.53;;;4.54;65.88
69855;BME280;57146;48.140;16.304;2022-12-07T14:43:05;99167.56;;;4.54;66.15
69855;BME280;57146;48.140;16.304;2022-12-07T14:45:32;99163.69;;;4.52;66.16
69855;BME280;57146;48.140;16.304;2022-12-07T14:47:59;99157.16;;;4.49;66.72
69855;BME280;57146;48.140;16.304;2022-12-07T14:50:52;99157.69;;;4.46;66.48
69855;BME280;57146;48.140;16.304;2022-12-07T14:53:47;99170.19;;;4.44;66.62
69855;BME280;57146;48.140;16.304;2022-12-07T14:56:23;99167.56;;;4.44;66.62
69855;BME280;57146;48.140;16.304;2022-12-07T14:58:49;99166.03;;;4.43;66.44
69855;BME280;57146;48.140;16.304;2022-12-07T15:01:16;99168.63;;;4.43;66.77
69855;BME280;57146;48.140;16.304;2022-12-07T15:03:43;99170.72;;;4.41;66.90
69855;BME280;57146;48.140;16.304;2022-12-07T15:06:14;99171.50;;;4.37;67.03
69855;BME280;57146;48.140;16.304;2022-12-07T15:08:42;99175.94;;;4.36;67.23
69855;BME280;57146;48.140;16.304;2022-12-07T15:11:12;99173.59;;;4.35;67.61
69855;BME280;57146;48.140;16.304;2022-12-07T15:13:39;99178.28;;;4.32;67.67
69855;BME280;57146;48.140;16.304;2022-12-07T15:16:13;99178.28;;;4.27;68.48
69855;BME280;57146;48.140;16.304;2022-12-07T15:18:43;99181.41;;;4.24;68.27